sensor_id;sensor_type;location;lat;lon;timestamp;P1;durP1;ratioP1;P2;durP2;ratioP2
6432;SDS011;3249;42.690;23.260;2024-03-06T00:00:50;22.20;;;16.20;;
6432;SDS011;3249;42.690;23.260;2024-03-06T00:03:19;26.83;;;16.47;;
6432;SDS011;3249;42.690;23.260;2024-03-06T00:05:49;24.07;;;15.63;;
6432;SDS011;3249;42.690;23.260;2024-03-06T00:08:18;23.73;;;15.97;;
6432;SDS011;3249;42.690;23.260;2024-03-06T00:10:50;23.70;;;16.03;;
6432;SDS011;3249;42.690;23.260;2024-03-06T00:13:20;21.53;;;15.50;;
6432;SDS011;3249;42.690;23.260;2024-03-06T00:15:50;20.97;;;15.00;;
6432;SDS011;3249;42.690;23.260;2024-03-06T00:18:19;23.27;;;14.83;;
6432;SDS011;3249;42.690;23.260;2024-03-06T00:20:51;21.30;;;15.97;;
6432;SDS011;3249;42.690;23.260;2024-03-06T00:23:25;23.67;;;15.30;;
6432;SDS011;3249;42.690;23.260;2024-03-06T00:26:01;25.07;;;16.33;;
6432;SDS011;3249;42.690;23.260;2024-03-06T00:28:31;25.77;;;15.70;;
6432;SDS011;3249;42.690;23.260;2024-03-06T00:31:03;22.63;;;16.47;;
6432;SDS011;3249;42.690;23.260;2024-03-06T00:33:40;24.50;;;16.23;;
6432;SDS011;3249;42.690;23.260;2024-03-06T00:36:11;22.97;;;15.27;;
6432;SDS011;3249;42.690;23.260;2024-03-06T00:38:43;24.20;;;16.27;;
6432;SDS011;3249;42.690;23.260;2024-03-06T00:41:16;22.53;;;16.20;;
6432;SDS011;3249;42.690;23.260;2024-03-06T00:43:46;27.20;;;17.83;;
6432;SDS011;3249;42.690;23.260;2024-03-06T00:46:16;27.73;;;17.90;;
6432;SDS011;3249;42.690;23.260;2024-03-06T00:48:47;23.17;;;17.00;;
6432;SDS011;3249;42.690;23.260;2024-03-06T00:51:16;26.60;;;17.80;;
6432;SDS011;3249;42.690;23.260;2024-03-06T00:53:55;25.93;;;17.83;;
6432;SDS011;3249;42.690;23.260;2024-03-06T00:56:28;29.47;;;18.03;;
6432;SDS011;3249;42.690;23.260;2024-03-06T00:58:58;26.87;;;18.13;;
6432;SDS011;3249;42.690;23.260;2024-03-06T01:01:27;23.70;;;17.30;;
6432;SDS011;3249;42.690;23.260;2024-03-06T01:04:00;29.13;;;18.43;;
6432;SDS011;3249;42.690;23.260;2024-03-06T01:06:31;28.23;;;19.20;;
6432;SDS011;3249;42.690;23.260;2024-03-06T01:09:00;25.97;;;18.50;;
6432;SDS011;3249;42.690;23.260;2024-03-06T01:11:32;34.50;;;19.33;;
6432;SDS011;3249;42.690;23.260;2024-03-06T01:14:02;31.43;;;19.80;;
6432;SDS011;3249;42.690;23.260;2024-03-06T01:16:31;26.93;;;17.67;;
6432;SDS011;3249;42.690;23.260;2024-03-06T01:19:01;27.17;;;19.07;;
6432;SDS011;3249;42.690;23.260;2024-03-06T01:21:31;30.77;;;19.77;;
6432;SDS011;3249;42.690;23.260;2024-03-06T01:24:00;29.80;;;18.97;;
6432;SDS011;3249;42.690;23.260;2024-03-06T01:26:32;28.90;;;18.43;;
6432;SDS011;3249;42.690;23.260;2024-03-06T01:29:01;27.07;;;19.93;;
6432;SDS011;3249;42.690;23.260;2024-03-06T01:31:31;31.33;;;19.73;;
6432;SDS011;3249;42.690;23.260;2024-03-06T01:34:00;29.53;;;19.00;;
6432;SDS011;3249;42.690;23.260;2024-03-06T01:36:29;28.53;;;19.33;;
6432;SDS011;3249;42.690;23.260;2024-03-06T01:38:59;29.80;;;19.23;;
6432;SDS011;3249;42.690;23.260;2024-03-06T01:41:28;25.67;;;17.63;;
6432;SDS011;3249;42.690;23.260;2024-03-06T01:44:01;27.13;;;18.83;;
6432;SDS011;3249;42.690;23.260;2024-03-06T01:46:30;28.67;;;19.17;;
6432;SDS011;3249;42.690;23.260;2024-03-06T01:48:59;28.13;;;18.70;;
6432;SDS011;3249;42.690;23.260;2024-03-06T01:51:29;29.20;;;18.50;;
6432;SDS011;3249;42.690;23.260;2024-03-06T01:53:59;27.37;;;17.90;;
6432;SDS011;3249;42.690;23.260;2024-03-06T01:56:33;27.77;;;18.93;;
6432;SDS011;3249;42.690;23.260;2024-03-06T01:59:06;24.80;;;17.63;;
6432;SDS011;3249;42.690;23.260;2024-03-06T02:01:36;32.97;;;21.50;;
6432;SDS011;3249;42.690;23.260;2024-03-06T02:04:06;32.33;;;20.80;;
6432;SDS011;3249;42.690;23.260;2024-03-06T02:06:38;48.50;;;30.60;;
6432;SDS011;3249;42.690;23.260;2024-03-06T02:09:08;34.60;;;21.87;;
6432;SDS011;3249;42.690;23.260;2024-03-06T02:11:39;33.10;;;20.70;;
6432;SDS011;3249;42.690;23.260;2024-03-06T02:14:11;30.97;;;19.97;;
6432;SDS011;3249;42.690;23.260;2024-03-06T02:16:40;28.70;;;19.13;;
6432;SDS011;3249;42.690;23.260;2024-03-06T02:19:10;35.83;;;22.30;;
6432;SDS011;3249;42.690;23.260;2024-03-06T02:21:43;30.37;;;20.40;;
6432;SDS011;3249;42.690;23.260;2024-03-06T02:24:12;30.73;;;20.10;;
6432;SDS011;3249;42.690;23.260;2024-03-06T02:26:41;33.07;;;20.03;;
6432;SDS011;3249;42.690;23.260;2024-03-06T02:29:11;30.83;;;20.13;;
6432;SDS011;3249;42.690;23.260;2024-03-06T02:31:40;33.83;;;20.27;;
6432;SDS011;3249;42.690;23.260;2024-03-06T02:34:09;29.17;;;18.40;;
6432;SDS011;3249;42.690;23.260;2024-03-06T02:36:42;24.43;;;18.27;;
6432;SDS011;3249;42.690;23.260;2024-03-06T02:39:11;31.20;;;18.90;;
6432;SDS011;3249;42.690;23.260;2024-03-06T02:41:41;28.30;;;18.60;;
6432;SDS011;3249;42.690;23.260;2024-03-06T02:44:10;30.40;;;18.07;;
6432;SDS011;3249;42.690;23.260;2024-03-06T02:46:39;26.07;;;18.53;;
6432;SDS011;3249;42.690;23.260;2024-03-06T02:49:09;29.90;;;18.47;;
6432;SDS011;3249;42.690;23.260;2024-03-06T02:51:38;32.93;;;21.03;;
6432;SDS011;3249;42.690;23.260;2024-03-06T02:54:10;26.93;;;17.83;;
6432;SDS011;3249;42.690;23.260;2024-03-06T02:56:39;29.70;;;19.33;;
6432;SDS011;3249;42.690;23.260;2024-03-06T02:59:09;30.97;;;19.10;;
6432;SDS011;3249;42.690;23.260;2024-03-06T03:01:39;31.80;;;19.27;;
6432;SDS011;3249;42.690;23.260;2024-03-06T03:04:09;30.80;;;18.60;;
6432;SDS011;3249;42.690;23.260;2024-03-06T03:06:38;30.80;;;18.70;;
6432;SDS011;3249;42.690;23.260;2024-03-06T03:09:10;32.50;;;20.07;;
6432;SDS011;3249;42.690;23.260;2024-03-06T03:11:39;28.07;;;18.73;;
6432;SDS011;3249;42.690;23.260;2024-03-06T03:14:13;30.40;;;19.13;;
6432;SDS011;3249;42.690;23.260;2024-03-06T03:16:44;29.73;;;19.33;;
6432;SDS011;3249;42.690;23.260;2024-03-06T03:19:14;33.23;;;18.10;;
6432;SDS011;3249;42.690;23.260;2024-03-06T03:21:43;29.50;;;18.33;;
6432;SDS011;3249;42.690;23.260;2024-03-06T03:24:15;27.73;;;18.40;;
6432;SDS011;3249;42.690;23.260;2024-03-06T03:26:46;30.30;;;20.23;;
6432;SDS011;3249;42.690;23.260;2024-03-06T03:29:16;29.97;;;20.27;;
6432;SDS011;3249;42.690;23.260;2024-03-06T03:31:46;28.47;;;18.60;;
6432;SDS011;3249;42.690;23.260;2024-03-06T03:34:15;30.37;;;19.30;;
6432;SDS011;3249;42.690;23.260;2024-03-06T03:36:46;28.20;;;19.20;;
6432;SDS011;3249;42.690;23.260;2024-03-06T03:39:20;30.30;;;19.37;;
6432;SDS011;3249;42.690;23.260;2024-03-06T03:41:50;39.87;;;24.13;;
6432;SDS011;3249;42.690;23.260;2024-03-06T03:44:19;36.23;;;23.67;;
6432;SDS011;3249;42.690;23.260;2024-03-06T03:46:48;31.03;;;19.40;;
6432;SDS011;3249;42.690;23.260;2024-03-06T03:49:17;31.93;;;19.70;;
6432;SDS011;3249;42.690;23.260;2024-03-06T03:51:50;31.87;;;19.60;;
6432;SDS011;3249;42.690;23.260;2024-03-06T03:54:23;32.90;;;20.40;;
6432;SDS011;3249;42.690;23.260;2024-03-06T03:56:52;31.50;;;19.90;;
6432;SDS011;3249;42.690;23.260;2024-03-06T03:59:21;30.73;;;20.87;;
6432;SDS011;3249;42.690;23.260;2024-03-06T04:01:51;36.33;;;21.70;;
6432;SDS011;3249;42.690;23.260;2024-03-06T04:04:22;34.70;;;20.17;;
6432;SDS011;3249;42.690;23.260;2024-03-06T04:06:52;35.30;;;20.73;;
6432;SDS011;3249;42.690;23.260;2024-03-06T04:09:23;32.77;;;20.90;;
6432;SDS011;3249;42.690;23.260;2024-03-06T04:11:54;35.83;;;20.10;;
6432;SDS011;3249;42.690;23.260;2024-03-06T04:14:24;30.43;;;19.77;;
6432;SDS011;3249;42.690;23.260;2024-03-06T04:16:53;40.63;;;22.07;;
6432;SDS011;3249;42.690;23.260;2024-03-06T04:19:22;39.73;;;20.83;;
6432;SDS011;3249;42.690;23.260;2024-03-06T04:21:51;34.33;;;19.87;;
6432;SDS011;3249;42.690;23.260;2024-03-06T04:24:23;31.30;;;20.00;;
6432;SDS011;3249;42.690;23.260;2024-03-06T04:26:52;34.17;;;22.17;;
6432;SDS011;3249;42.690;23.260;2024-03-06T04:29:21;34.33;;;20.57;;
6432;SDS011;3249;42.690;23.260;2024-03-06T04:31:51;38.33;;;21.37;;
6432;SDS011;3249;42.690;23.260;2024-03-06T04:34:20;36.23;;;22.10;;
6432;SDS011;3249;42.690;23.260;2024-03-06T04:36:49;37.13;;;23.70;;
6432;SDS011;3249;42.690;23.260;2024-03-06T04:39:19;44.53;;;26.47;;
6432;SDS011;3249;42.690;23.260;2024-03-06T04:41:51;53.30;;;29.97;;
6432;SDS011;3249;42.690;23.260;2024-03-06T04:44:20;45.27;;;30.13;;
6432;SDS011;3249;42.690;23.260;2024-03-06T04:46:52;59.97;;;38.70;;
6432;SDS011;3249;42.690;23.260;2024-03-06T04:49:25;51.97;;;35.47;;
6432;SDS011;3249;42.690;23.260;2024-03-06T04:51:54;57.30;;;34.63;;
6432;SDS011;3249;42.690;23.260;2024-03-06T04:54:23;58.67;;;34.87;;
6432;SDS011;3249;42.690;23.260;2024-03-06T04:56:55;51.33;;;32.03;;
6432;SDS011;3249;42.690;23.260;2024-03-06T04:59:25;45.77;;;28.13;;
6432;SDS011;3249;42.690;23.260;2024-03-06T05:01:54;58.60;;;34.30;;
6432;SDS011;3249;42.690;23.260;2024-03-06T05:04:24;74.13;;;39.53;;
6432;SDS011;3249;42.690;23.260;2024-03-06T05:06:53;66.43;;;38.90;;
6432;SDS011;3249;42.690;23.260;2024-03-06T05:09:22;56.03;;;31.90;;
6432;SDS011;3249;42.690;23.260;2024-03-06T05:11:55;46.23;;;28.67;;
6432;SDS011;3249;42.690;23.260;2024-03-06T05:14:24;41.33;;;25.97;;
6432;SDS011;3249;42.690;23.260;2024-03-06T05:16:53;48.43;;;27.77;;
6432;SDS011;3249;42.690;23.260;2024-03-06T05:19:23;62.43;;;32.23;;
6432;SDS011;3249;42.690;23.260;2024-03-06T05:21:57;57.50;;;29.03;;
6432;SDS011;3249;42.690;23.260;2024-03-06T05:24:27;60.40;;;32.03;;
6432;SDS011;3249;42.690;23.260;2024-03-06T05:26:58;66.67;;;36.40;;
6432;SDS011;3249;42.690;23.260;2024-03-06T05:29:28;55.80;;;38.97;;
6432;SDS011;3249;42.690;23.260;2024-03-06T05:31:57;64.87;;;42.53;;
6432;SDS011;3249;42.690;23.260;2024-03-06T05:34:26;72.10;;;38.57;;
6432;SDS011;3249;42.690;23.260;2024-03-06T05:36:56;57.77;;;37.60;;
6432;SDS011;3249;42.690;23.260;2024-03-06T05:39:25;54.50;;;34.07;;
6432;SDS011;3249;42.690;23.260;2024-03-06T05:41:54;60.97;;;36.10;;
6432;SDS011;3249;42.690;23.260;2024-03-06T05:44:27;56.87;;;37.13;;
6432;SDS011;3249;42.690;23.260;2024-03-06T05:46:56;58.00;;;39.13;;
6432;SDS011;3249;42.690;23.260;2024-03-06T05:49:27;61.10;;;39.57;;
6432;SDS011;3249;42.690;23.260;2024-03-06T05:51:58;65.43;;;38.60;;
6432;SDS011;3249;42.690;23.260;2024-03-06T05:54:28;57.60;;;38.27;;
6432;SDS011;3249;42.690;23.260;2024-03-06T05:56:59;59.17;;;38.23;;
6432;SDS011;3249;42.690;23.260;2024-03-06T05:59:31;58.20;;;38.07;;
6432;SDS011;3249;42.690;23.260;2024-03-06T06:02:01;59.90;;;40.37;;
6432;SDS011;3249;42.690;23.260;2024-03-06T06:04:31;62.17;;;39.17;;
6432;SDS011;3249;42.690;23.260;2024-03-06T06:07:00;73.20;;;43.00;;
6432;SDS011;3249;42.690;23.260;2024-03-06T06:09:34;80.43;;;50.57;;
6432;SDS011;3249;42.690;23.260;2024-03-06T06:12:03;74.73;;;46.23;;
6432;SDS011;3249;42.690;23.260;2024-03-06T06:14:38;50.60;;;37.10;;
6432;SDS011;3249;42.690;23.260;2024-03-06T06:17:07;50.87;;;36.03;;
6432;SDS011;3249;42.690;23.260;2024-03-06T06:19:40;66.47;;;38.07;;
6432;SDS011;3249;42.690;23.260;2024-03-06T06:22:10;57.70;;;38.20;;
6432;SDS011;3249;42.690;23.260;2024-03-06T06:24:40;51.00;;;33.57;;
6432;SDS011;3249;42.690;23.260;2024-03-06T06:27:11;54.30;;;31.80;;
6432;SDS011;3249;42.690;23.260;2024-03-06T06:29:43;52.27;;;33.40;;
6432;SDS011;3249;42.690;23.260;2024-03-06T06:32:13;48.73;;;32.93;;
6432;SDS011;3249;42.690;23.260;2024-03-06T06:35:00;44.30;;;30.77;;
6432;SDS011;3249;42.690;23.260;2024-03-06T06:37:29;46.50;;;27.97;;
6432;SDS011;3249;42.690;23.260;2024-03-06T06:39:59;46.67;;;28.60;;
6432;SDS011;3249;42.690;23.260;2024-03-06T06:42:33;50.53;;;28.47;;
6432;SDS011;3249;42.690;23.260;2024-03-06T06:45:05;46.33;;;29.27;;
6432;SDS011;3249;42.690;23.260;2024-03-06T06:47:35;42.73;;;29.47;;
6432;SDS011;3249;42.690;23.260;2024-03-06T06:50:05;41.37;;;26.10;;
6432;SDS011;3249;42.690;23.260;2024-03-06T06:52:36;61.30;;;42.03;;
6432;SDS011;3249;42.690;23.260;2024-03-06T06:55:06;83.57;;;48.97;;
6432;SDS011;3249;42.690;23.260;2024-03-06T06:57:37;86.13;;;47.53;;
6432;SDS011;3249;42.690;23.260;2024-03-06T07:00:09;54.10;;;36.40;;
6432;SDS011;3249;42.690;23.260;2024-03-06T07:02:42;72.70;;;45.80;;
6432;SDS011;3249;42.690;23.260;2024-03-06T07:05:11;67.10;;;46.07;;
6432;SDS011;3249;42.690;23.260;2024-03-06T07:07:41;55.37;;;31.40;;
6432;SDS011;3249;42.690;23.260;2024-03-06T07:10:10;42.10;;;29.23;;
6432;SDS011;3249;42.690;23.260;2024-03-06T07:12:40;46.00;;;27.37;;
6432;SDS011;3249;42.690;23.260;2024-03-06T07:15:11;43.33;;;26.20;;
6432;SDS011;3249;42.690;23.260;2024-03-06T07:17:41;35.27;;;23.53;;
6432;SDS011;3249;42.690;23.260;2024-03-06T07:20:11;41.97;;;25.63;;
6432;SDS011;3249;42.690;23.260;2024-03-06T07:22:40;42.53;;;25.20;;
6432;SDS011;3249;42.690;23.260;2024-03-06T07:25:09;37.37;;;24.63;;
6432;SDS011;3249;42.690;23.260;2024-03-06T07:27:39;57.93;;;39.37;;
6432;SDS011;3249;42.690;23.260;2024-03-06T07:30:11;63.00;;;43.27;;
6432;SDS011;3249;42.690;23.260;2024-03-06T07:32:41;47.10;;;29.60;;
6432;SDS011;3249;42.690;23.260;2024-03-06T07:35:11;47.00;;;31.97;;
6432;SDS011;3249;42.690;23.260;2024-03-06T07:37:41;43.17;;;31.47;;
6432;SDS011;3249;42.690;23.260;2024-03-06T07:40:10;45.53;;;31.30;;
6432;SDS011;3249;42.690;23.260;2024-03-06T07:42:39;64.53;;;33.93;;
6432;SDS011;3249;42.690;23.260;2024-03-06T07:45:12;47.50;;;27.33;;
6432;SDS011;3249;42.690;23.260;2024-03-06T07:47:42;52.87;;;27.13;;
6432;SDS011;3249;42.690;23.260;2024-03-06T07:50:11;40.37;;;27.17;;
6432;SDS011;3249;42.690;23.260;2024-03-06T07:52:44;41.27;;;26.93;;
6432;SDS011;3249;42.690;23.260;2024-03-06T07:55:14;46.47;;;28.13;;
6432;SDS011;3249;42.690;23.260;2024-03-06T07:57:44;43.03;;;27.40;;
6432;SDS011;3249;42.690;23.260;2024-03-06T08:00:17;43.27;;;28.27;;
6432;SDS011;3249;42.690;23.260;2024-03-06T08:02:47;44.70;;;28.73;;
6432;SDS011;3249;42.690;23.260;2024-03-06T08:05:17;46.37;;;30.90;;
6432;SDS011;3249;42.690;23.260;2024-03-06T08:07:47;49.73;;;31.73;;
6432;SDS011;3249;42.690;23.260;2024-03-06T08:10:17;50.90;;;30.60;;
6432;SDS011;3249;42.690;23.260;2024-03-06T08:12:46;48.87;;;29.23;;
6432;SDS011;3249;42.690;23.260;2024-03-06T08:15:19;56.23;;;40.80;;
6432;SDS011;3249;42.690;23.260;2024-03-06T08:17:48;50.83;;;38.17;;
6432;SDS011;3249;42.690;23.260;2024-03-06T08:20:18;44.13;;;28.47;;
6432;SDS011;3249;42.690;23.260;2024-03-06T08:22:49;47.47;;;29.67;;
6432;SDS011;3249;42.690;23.260;2024-03-06T08:25:18;45.27;;;29.80;;
6432;SDS011;3249;42.690;23.260;2024-03-06T08:27:47;41.33;;;27.47;;
6432;SDS011;3249;42.690;23.260;2024-03-06T08:30:19;42.03;;;25.87;;
6432;SDS011;3249;42.690;23.260;2024-03-06T08:32:49;38.80;;;26.43;;
6432;SDS011;3249;42.690;23.260;2024-03-06T08:35:19;38.77;;;26.60;;
6432;SDS011;3249;42.690;23.260;2024-03-06T08:37:49;39.87;;;25.93;;
6432;SDS011;3249;42.690;23.260;2024-03-06T08:40:19;38.87;;;23.87;;
6432;SDS011;3249;42.690;23.260;2024-03-06T08:42:48;33.87;;;23.13;;
6432;SDS011;3249;42.690;23.260;2024-03-06T08:45:20;34.27;;;22.37;;
6432;SDS011;3249;42.690;23.260;2024-03-06T08:47:51;35.50;;;22.87;;
6432;SDS011;3249;42.690;23.260;2024-03-06T08:50:21;33.53;;;22.70;;
6432;SDS011;3249;42.690;23.260;2024-03-06T08:52:50;33.73;;;24.03;;
6432;SDS011;3249;42.690;23.260;2024-03-06T08:55:19;34.67;;;24.17;;
6432;SDS011;3249;42.690;23.260;2024-03-06T08:57:49;41.50;;;28.40;;
6432;SDS011;3249;42.690;23.260;2024-03-06T09:00:22;39.07;;;26.80;;
6432;SDS011;3249;42.690;23.260;2024-03-06T09:02:52;31.67;;;23.83;;
6432;SDS011;3249;42.690;23.260;2024-03-06T09:05:21;34.93;;;23.80;;
6432;SDS011;3249;42.690;23.260;2024-03-06T09:07:51;35.97;;;24.57;;
6432;SDS011;3249;42.690;23.260;2024-03-06T09:10:23;29.07;;;22.50;;
6432;SDS011;3249;42.690;23.260;2024-03-06T09:12:52;36.83;;;22.67;;
6432;SDS011;3249;42.690;23.260;2024-03-06T09:15:24;29.33;;;21.63;;
6432;SDS011;3249;42.690;23.260;2024-03-06T09:17:54;35.70;;;22.87;;
6432;SDS011;3249;42.690;23.260;2024-03-06T09:20:24;30.63;;;22.57;;
6432;SDS011;3249;42.690;23.260;2024-03-06T09:22:53;30.10;;;21.73;;
6432;SDS011;3249;42.690;23.260;2024-03-06T09:25:23;36.07;;;22.30;;
6432;SDS011;3249;42.690;23.260;2024-03-06T09:27:54;36.80;;;22.53;;
6432;SDS011;3249;42.690;23.260;2024-03-06T09:30:28;32.27;;;19.07;;
6432;SDS011;3249;42.690;23.260;2024-03-06T09:32:58;33.93;;;21.10;;
6432;SDS011;3249;42.690;23.260;2024-03-06T09:35:27;31.70;;;20.30;;
6432;SDS011;3249;42.690;23.260;2024-03-06T09:37:58;32.47;;;19.03;;
6432;SDS011;3249;42.690;23.260;2024-03-06T09:40:27;24.17;;;15.57;;
6432;SDS011;3249;42.690;23.260;2024-03-06T09:42:58;21.70;;;15.63;;
6432;SDS011;3249;42.690;23.260;2024-03-06T09:45:30;24.43;;;15.80;;
6432;SDS011;3249;42.690;23.260;2024-03-06T09:48:01;22.77;;;15.40;;
6432;SDS011;3249;42.690;23.260;2024-03-06T09:50:32;17.70;;;14.30;;
6432;SDS011;3249;42.690;23.260;2024-03-06T09:53:08;19.03;;;14.40;;
6432;SDS011;3249;42.690;23.260;2024-03-06T09:55:39;22.23;;;15.93;;
6432;SDS011;3249;42.690;23.260;2024-03-06T09:58:10;22.27;;;16.53;;
6432;SDS011;3249;42.690;23.260;2024-03-06T10:00:42;18.87;;;12.30;;
6432;SDS011;3249;42.690;23.260;2024-03-06T10:03:12;13.83;;;10.90;;
6432;SDS011;3249;42.690;23.260;2024-03-06T10:05:42;16.73;;;10.73;;
6432;SDS011;3249;42.690;23.260;2024-03-06T10:08:12;19.93;;;13.13;;
6432;SDS011;3249;42.690;23.260;2024-03-06T10:10:42;16.50;;;12.23;;
6432;SDS011;3249;42.690;23.260;2024-03-06T10:13:11;17.73;;;11.03;;
6432;SDS011;3249;42.690;23.260;2024-03-06T10:15:43;16.97;;;10.13;;
6432;SDS011;3249;42.690;23.260;2024-03-06T10:18:26;13.90;;;9.73;;
6432;SDS011;3249;42.690;23.260;2024-03-06T10:20:58;14.37;;;9.63;;
6432;SDS011;3249;42.690;23.260;2024-03-06T10:23:27;13.50;;;9.40;;
6432;SDS011;3249;42.690;23.260;2024-03-06T10:25:57;12.60;;;8.90;;
6432;SDS011;3249;42.690;23.260;2024-03-06T10:28:26;11.13;;;9.20;;
6432;SDS011;3249;42.690;23.260;2024-03-06T10:31:04;11.60;;;10.17;;
6432;SDS011;3249;42.690;23.260;2024-03-06T10:33:35;12.47;;;9.47;;
6432;SDS011;3249;42.690;23.260;2024-03-06T10:36:04;11.40;;;9.43;;
6432;SDS011;3249;42.690;23.260;2024-03-06T10:38:35;10.90;;;9.80;;
6432;SDS011;3249;42.690;23.260;2024-03-06T10:41:10;13.33;;;9.60;;
6432;SDS011;3249;42.690;23.260;2024-03-06T10:43:42;14.57;;;10.23;;
6432;SDS011;3249;42.690;23.260;2024-03-06T10:46:19;17.43;;;9.87;;
6432;SDS011;3249;42.690;23.260;2024-03-06T10:48:50;11.10;;;10.00;;
6432;SDS011;3249;42.690;23.260;2024-03-06T10:51:24;10.40;;;9.30;;
6432;SDS011;3249;42.690;23.260;2024-03-06T10:53:55;10.03;;;8.60;;
6432;SDS011;3249;42.690;23.260;2024-03-06T10:56:27;9.30;;;8.43;;
6432;SDS011;3249;42.690;23.260;2024-03-06T10:58:56;12.53;;;9.40;;
6432;SDS011;3249;42.690;23.260;2024-03-06T11:01:31;10.00;;;8.80;;
6432;SDS011;3249;42.690;23.260;2024-03-06T11:04:01;13.73;;;7.87;;
6432;SDS011;3249;42.690;23.260;2024-03-06T11:06:32;10.80;;;8.43;;
6432;SDS011;3249;42.690;23.260;2024-03-06T11:09:02;10.77;;;9.03;;
6432;SDS011;3249;42.690;23.260;2024-03-06T11:11:31;10.07;;;8.13;;
6432;SDS011;3249;42.690;23.260;2024-03-06T11:14:01;10.17;;;9.10;;
6432;SDS011;3249;42.690;23.260;2024-03-06T11:16:55;12.47;;;8.53;;
6432;SDS011;3249;42.690;23.260;2024-03-06T11:28:31;10.53;;;9.00;;
6432;SDS011;3249;42.690;23.260;2024-03-06T11:31:03;14.33;;;9.57;;
6432;SDS011;3249;42.690;23.260;2024-03-06T11:33:40;13.67;;;8.73;;
6432;SDS011;3249;42.690;23.260;2024-03-06T11:36:14;13.53;;;9.57;;
6432;SDS011;3249;42.690;23.260;2024-03-06T11:38:52;11.50;;;9.97;;
6432;SDS011;3249;42.690;23.260;2024-03-06T11:41:24;10.30;;;9.20;;
6432;SDS011;3249;42.690;23.260;2024-03-06T11:43:54;11.00;;;8.83;;
6432;SDS011;3249;42.690;23.260;2024-03-06T11:46:40;9.23;;;8.13;;
6432;SDS011;3249;42.690;23.260;2024-03-06T11:49:17;11.70;;;8.80;;
6432;SDS011;3249;42.690;23.260;2024-03-06T11:51:47;9.60;;;8.73;;
6432;SDS011;3249;42.690;23.260;2024-03-06T11:54:17;10.17;;;9.10;;
6432;SDS011;3249;42.690;23.260;2024-03-06T11:56:50;8.70;;;7.80;;
6432;SDS011;3249;42.690;23.260;2024-03-06T11:59:21;12.40;;;8.90;;
6432;SDS011;3249;42.690;23.260;2024-03-06T12:01:51;9.10;;;8.20;;
6432;SDS011;3249;42.690;23.260;2024-03-06T12:04:24;13.47;;;9.43;;
6432;SDS011;3249;42.690;23.260;2024-03-06T12:06:56;16.47;;;9.27;;
6432;SDS011;3249;42.690;23.260;2024-03-06T12:09:32;12.97;;;10.83;;
6432;SDS011;3249;42.690;23.260;2024-03-06T12:12:02;12.30;;;10.13;;
6432;SDS011;3249;42.690;23.260;2024-03-06T12:14:34;11.50;;;9.23;;
6432;SDS011;3249;42.690;23.260;2024-03-06T12:17:04;12.20;;;10.10;;
6432;SDS011;3249;42.690;23.260;2024-03-06T12:19:37;11.50;;;9.10;;
6432;SDS011;3249;42.690;23.260;2024-03-06T12:22:06;11.20;;;9.13;;
6432;SDS011;3249;42.690;23.260;2024-03-06T12:24:37;10.27;;;9.27;;
6432;SDS011;3249;42.690;23.260;2024-03-06T12:27:06;9.77;;;8.77;;
6432;SDS011;3249;42.690;23.260;2024-03-06T12:29:39;11.33;;;8.87;;
6432;SDS011;3249;42.690;23.260;2024-03-06T12:32:15;10.67;;;9.50;;
6432;SDS011;3249;42.690;23.260;2024-03-06T12:35:01;9.33;;;7.87;;
6432;SDS011;3249;42.690;23.260;2024-03-06T12:37:30;10.23;;;9.13;;
6432;SDS011;3249;42.690;23.260;2024-03-06T12:40:00;9.87;;;8.93;;
6432;SDS011;3249;42.690;23.260;2024-03-06T12:42:30;11.47;;;9.00;;
6432;SDS011;3249;42.690;23.260;2024-03-06T12:44:59;11.73;;;8.83;;
6432;SDS011;3249;42.690;23.260;2024-03-06T12:47:29;12.73;;;8.60;;
6432;SDS011;3249;42.690;23.260;2024-03-06T12:50:01;9.43;;;8.40;;
6432;SDS011;3249;42.690;23.260;2024-03-06T12:52:33;10.40;;;8.43;;
6432;SDS011;3249;42.690;23.260;2024-03-06T12:55:03;15.07;;;11.27;;
6432;SDS011;3249;42.690;23.260;2024-03-06T12:57:33;15.80;;;11.50;;
6432;SDS011;3249;42.690;23.260;2024-03-06T13:00:03;13.80;;;10.00;;
6432;SDS011;3249;42.690;23.260;2024-03-06T13:02:41;15.23;;;9.90;;
6432;SDS011;3249;42.690;23.260;2024-03-06T13:05:14;12.73;;;8.83;;
6432;SDS011;3249;42.690;23.260;2024-03-06T13:07:45;13.73;;;9.63;;
6432;SDS011;3249;42.690;23.260;2024-03-06T13:10:14;14.10;;;8.27;;
6432;SDS011;3249;42.690;23.260;2024-03-06T13:12:44;10.80;;;7.73;;
6432;SDS011;3249;42.690;23.260;2024-03-06T13:15:15;7.40;;;6.83;;
6432;SDS011;3249;42.690;23.260;2024-03-06T13:17:44;9.73;;;8.00;;
6432;SDS011;3249;42.690;23.260;2024-03-06T13:20:16;10.73;;;8.07;;
6432;SDS011;3249;42.690;23.260;2024-03-06T13:22:45;12.13;;;8.10;;
6432;SDS011;3249;42.690;23.260;2024-03-06T13:25:15;10.93;;;8.27;;
6432;SDS011;3249;42.690;23.260;2024-03-06T13:27:45;9.00;;;8.10;;
6432;SDS011;3249;42.690;23.260;2024-03-06T13:30:14;11.27;;;10.00;;
6432;SDS011;3249;42.690;23.260;2024-03-06T13:32:44;10.17;;;7.53;;
6432;SDS011;3249;42.690;23.260;2024-03-06T13:35:16;11.10;;;7.10;;
6432;SDS011;3249;42.690;23.260;2024-03-06T13:37:46;9.27;;;7.67;;
6432;SDS011;3249;42.690;23.260;2024-03-06T13:40:15;8.60;;;7.80;;
6432;SDS011;3249;42.690;23.260;2024-03-06T13:42:45;9.40;;;8.20;;
6432;SDS011;3249;42.690;23.260;2024-03-06T13:45:14;12.23;;;7.90;;
6432;SDS011;3249;42.690;23.260;2024-03-06T13:47:44;10.90;;;8.90;;
6432;SDS011;3249;42.690;23.260;2024-03-06T13:50:17;14.07;;;9.27;;
6432;SDS011;3249;42.690;23.260;2024-03-06T13:52:49;8.30;;;7.33;;
6432;SDS011;3249;42.690;23.260;2024-03-06T13:55:18;8.83;;;7.47;;
6432;SDS011;3249;42.690;23.260;2024-03-06T13:57:48;7.33;;;6.73;;
6432;SDS011;3249;42.690;23.260;2024-03-06T14:00:18;12.07;;;8.00;;
6432;SDS011;3249;42.690;23.260;2024-03-06T14:02:48;12.93;;;7.80;;
6432;SDS011;3249;42.690;23.260;2024-03-06T14:05:21;9.00;;;8.27;;
6432;SDS011;3249;42.690;23.260;2024-03-06T14:07:53;9.50;;;8.50;;
6432;SDS011;3249;42.690;23.260;2024-03-06T14:10:22;10.07;;;8.47;;
6432;SDS011;3249;42.690;23.260;2024-03-06T14:12:52;15.10;;;11.73;;
6432;SDS011;3249;42.690;23.260;2024-03-06T14:15:23;21.73;;;16.70;;
6432;SDS011;3249;42.690;23.260;2024-03-06T14:17:52;13.77;;;9.13;;
6432;SDS011;3249;42.690;23.260;2024-03-06T14:20:24;9.57;;;7.77;;
6432;SDS011;3249;42.690;23.260;2024-03-06T14:22:53;8.10;;;7.27;;
6432;SDS011;3249;42.690;23.260;2024-03-06T14:25:23;9.70;;;7.33;;
6432;SDS011;3249;42.690;23.260;2024-03-06T14:27:52;8.93;;;7.23;;
6432;SDS011;3249;42.690;23.260;2024-03-06T14:30:22;9.67;;;8.33;;
6432;SDS011;3249;42.690;23.260;2024-03-06T14:32:51;10.33;;;7.70;;
6432;SDS011;3249;42.690;23.260;2024-03-06T14:35:20;11.40;;;8.17;;
6432;SDS011;3249;42.690;23.260;2024-03-06T14:37:53;10.93;;;6.80;;
6432;SDS011;3249;42.690;23.260;2024-03-06T14:40:22;9.03;;;8.03;;
6432;SDS011;3249;42.690;23.260;2024-03-06T14:42:51;12.30;;;9.73;;
6432;SDS011;3249;42.690;23.260;2024-03-06T14:45:20;10.90;;;8.93;;
6432;SDS011;3249;42.690;23.260;2024-03-06T14:47:49;13.03;;;9.20;;
6432;SDS011;3249;42.690;23.260;2024-03-06T14:50:21;10.63;;;7.63;;
6432;SDS011;3249;42.690;23.260;2024-03-06T14:52:52;12.30;;;8.97;;
6432;SDS011;3249;42.690;23.260;2024-03-06T14:55:22;10.07;;;9.00;;
6432;SDS011;3249;42.690;23.260;2024-03-06T14:57:51;11.27;;;8.33;;
6432;SDS011;3249;42.690;23.260;2024-03-06T15:00:20;10.07;;;9.03;;
6432;SDS011;3249;42.690;23.260;2024-03-06T15:02:50;10.83;;;8.90;;
6432;SDS011;3249;42.690;23.260;2024-03-06T15:05:23;11.40;;;8.80;;
6432;SDS011;3249;42.690;23.260;2024-03-06T15:07:55;9.13;;;8.13;;